createdAt,value
2022-10-03T00:00:57.291Z,0
2022-10-03T00:02:00.348Z,0
2022-10-03T00:03:04.407Z,0
2022-10-03T00:04:07.672Z,0
2022-10-03T00:05:11.421Z,0
2022-10-03T00:06:14.371Z,0
2022-10-03T00:07:17.474Z,0
2022-10-03T00:08:20.577Z,0
2022-10-03T00:09:24.274Z,0
2022-10-03T00:10:27.627Z,0
2022-10-03T00:11:31.153Z,0
2022-10-03T00:12:34.318Z,0
2022-10-03T00:13:37.543Z,0
2022-10-03T00:14:40.621Z,0
2022-10-03T00:15:42.837Z,0
2022-10-03T00:16:46.549Z,0
2022-10-03T00:17:50.590Z,0
2022-10-03T00:18:53.821Z,0
2022-10-03T00:19:56.817Z,0
2022-10-03T00:20:59.902Z,0
2022-10-03T00:22:02.722Z,0
2022-10-03T00:23:05.800Z,0
2022-10-03T00:24:09.535Z,0
2022-10-03T00:25:13.025Z,0
2022-10-03T00:26:16.113Z,0
2022-10-03T00:27:18.894Z,0
2022-10-03T00:28:21.140Z,0
2022-10-03T00:29:24.328Z,0
2022-10-03T00:30:27.613Z,0
2022-10-03T00:31:31.021Z,0
2022-10-03T00:32:34.590Z,0
2022-10-03T00:33:37.805Z,0
2022-10-03T00:34:40.812Z,0
2022-10-03T00:35:44.192Z,0
2022-10-03T00:36:46.791Z,0
2022-10-03T00:37:50.295Z,0
2022-10-03T00:38:53.754Z,0
2022-10-03T00:39:56.546Z,0
2022-10-03T00:40:59.329Z,0
2022-10-03T00:42:02.201Z,0
2022-10-03T00:43:05.326Z,0
2022-10-03T00:44:08.192Z,0
2022-10-03T00:45:11.178Z,0
2022-10-03T00:46:13.721Z,0
2022-10-03T00:47:17.147Z,0
2022-10-03T00:48:20.217Z,0
2022-10-03T00:49:23.346Z,0
2022-10-03T00:50:25.640Z,0
2022-10-03T00:51:28.440Z,0
2022-10-03T00:52:31.784Z,0
2022-10-03T00:53:35.582Z,0
2022-10-03T00:54:38.943Z,0
2022-10-03T00:55:42.392Z,0
2022-10-03T00:56:45.261Z,0
2022-10-03T00:57:48.061Z,0
2022-10-03T00:58:51.117Z,0
2022-10-03T00:59:53.644Z,0
2022-10-03T01:00:56.770Z,0
2022-10-03T01:02:00.639Z,0
2022-10-03T01:03:04.196Z,0
2022-10-03T01:04:07.636Z,0
2022-10-03T01:05:11.462Z,0
2022-10-03T01:06:14.888Z,0
2022-10-03T01:07:17.793Z,0
2022-10-03T01:08:20.939Z,0
2022-10-03T01:09:24.409Z,0
2022-10-03T01:10:26.652Z,0
2022-10-03T01:11:29.715Z,0
2022-10-03T01:12:33.094Z,0
2022-10-03T01:13:35.877Z,0
2022-10-03T01:14:38.384Z,0
2022-10-03T01:15:41.030Z,0
2022-10-03T01:16:43.641Z,0
2022-10-03T01:17:46.431Z,0
2022-10-03T01:18:49.893Z,0
2022-10-03T01:19:53.440Z,0
2022-10-03T01:20:56.554Z,0
2022-10-03T01:21:59.240Z,0
2022-10-03T01:23:02.508Z,0
2022-10-03T01:24:05.756Z,0
2022-10-03T01:25:09.053Z,0
2022-10-03T01:26:12.504Z,0
2022-10-03T01:27:15.298Z,0
2022-10-03T01:28:18.173Z,0
2022-10-03T01:29:22.027Z,0
2022-10-03T01:30:24.835Z,0
2022-10-03T01:31:27.390Z,0
2022-10-03T01:32:30.639Z,0
2022-10-03T01:33:33.798Z,0
2022-10-03T01:34:36.522Z,0
2022-10-03T01:35:39.758Z,0
2022-10-03T01:36:42.670Z,0
2022-10-03T01:37:46.326Z,0
2022-10-03T01:38:49.764Z,0
2022-10-03T01:39:52.624Z,0
2022-10-03T01:40:55.829Z,0
2022-10-03T01:41:59.297Z,0
2022-10-03T01:43:02.910Z,0
2022-10-03T01:44:05.863Z,0
2022-10-03T01:45:08.924Z,0
2022-10-03T01:46:12.391Z,0
2022-10-03T01:47:15.264Z,0
2022-10-03T01:48:18.359Z,0
2022-10-03T01:49:21.178Z,0
2022-10-03T01:50:24.274Z,0
2022-10-03T01:51:27.711Z,0
2022-10-03T01:52:31.549Z,0
2022-10-03T01:53:34.934Z,0
2022-10-03T01:54:37.994Z,0
2022-10-03T01:55:41.153Z,0
2022-10-03T01:56:44.637Z,0
2022-10-03T01:57:48.184Z,0
2022-10-03T01:58:50.993Z,0
2022-10-03T01:59:53.508Z,0
2022-10-03T02:00:56.706Z,0
2022-10-03T02:01:59.346Z,0
2022-10-03T02:03:02.473Z,0
2022-10-03T02:04:05.277Z,0
2022-10-03T02:05:08.354Z,0
2022-10-03T02:06:10.971Z,0
2022-10-03T02:07:13.436Z,0
2022-10-03T02:08:17.286Z,0
2022-10-03T02:09:20.763Z,0
2022-10-03T02:10:24.213Z,0
2022-10-03T02:11:27.394Z,0
2022-10-03T02:12:30.799Z,0
2022-10-03T02:13:34.259Z,0
2022-10-03T02:14:37.234Z,0
2022-10-03T02:15:40.389Z,0
2022-10-03T02:16:43.189Z,0
2022-10-03T02:17:46.266Z,0
2022-10-03T02:18:49.351Z,0
2022-10-03T02:19:52.234Z,0
2022-10-03T02:20:55.544Z,0
2022-10-03T02:21:58.837Z,0
2022-10-03T02:23:02.350Z,0
2022-10-03T02:24:05.270Z,0
2022-10-03T02:25:08.267Z,0
2022-10-03T02:26:10.777Z,0
2022-10-03T02:27:14.515Z,0
2022-10-03T02:28:17.572Z,0
2022-10-03T02:29:21.217Z,0
2022-10-03T02:30:23.823Z,0
2022-10-03T02:31:27.261Z,0
2022-10-03T02:32:31.030Z,0
2022-10-03T02:33:34.528Z,0
2022-10-03T02:34:37.525Z,0
2022-10-03T02:35:40.585Z,0
2022-10-03T02:36:43.463Z,0
2022-10-03T02:37:46.473Z,0
2022-10-03T02:38:49.694Z,0
2022-10-03T02:39:53.200Z,0
2022-10-03T02:40:55.649Z,0
2022-10-03T02:41:58.533Z,0
2022-10-03T02:43:01.953Z,0
2022-10-03T02:44:05.291Z,0
2022-10-03T02:45:08.465Z,0
2022-10-03T02:46:11.382Z,0
2022-10-03T02:47:14.919Z,0
2022-10-03T02:48:31.089Z,0
2022-10-03T02:49:35.854Z,0
2022-10-03T02:50:38.994Z,0
2022-10-03T02:51:42.693Z,0
2022-10-03T02:52:45.027Z,0
2022-10-03T02:53:48.186Z,0
2022-10-03T02:54:51.202Z,0
2022-10-03T02:55:54.154Z,0
2022-10-03T02:56:56.954Z,0
2022-10-03T02:58:00.032Z,0
2022-10-03T02:59:02.974Z,0
2022-10-03T03:00:06.094Z,0
2022-10-03T03:01:08.386Z,0
2022-10-03T03:02:11.923Z,0
2022-10-03T03:03:14.903Z,0
2022-10-03T03:04:18.361Z,0
2022-10-03T03:05:21.707Z,0
2022-10-03T03:06:24.575Z,0
2022-10-03T03:07:27.656Z,0
2022-10-03T03:08:31.385Z,0
2022-10-03T03:09:34.440Z,0
2022-10-03T03:10:37.768Z,0
2022-10-03T03:11:41.288Z,0
2022-10-03T03:12:45.072Z,0
2022-10-03T03:13:47.958Z,0
2022-10-03T03:14:51.138Z,0
2022-10-03T03:15:54.254Z,0
2022-10-03T03:16:57.441Z,0
2022-10-03T03:18:00.249Z,0
2022-10-03T03:19:03.736Z,0
2022-10-03T03:20:06.831Z,0
2022-10-03T03:21:09.553Z,0
2022-10-03T03:22:12.346Z,0
2022-10-03T03:23:15.143Z,0
2022-10-03T03:24:18.591Z,0
2022-10-03T03:25:21.852Z,0
2022-10-03T03:26:25.351Z,0
2022-10-03T03:27:28.556Z,0
2022-10-03T03:28:31.716Z,0
2022-10-03T03:29:35.737Z,0
2022-10-03T03:30:38.873Z,0
2022-10-03T03:31:42.927Z,0
2022-10-03T03:32:47.866Z,0
2022-10-03T03:33:50.582Z,0
2022-10-03T03:34:54.035Z,0
2022-10-03T03:35:57.189Z,0
2022-10-03T03:37:00.452Z,0
2022-10-03T03:38:03.236Z,0
2022-10-03T03:39:05.568Z,0
2022-10-03T03:40:08.278Z,0
2022-10-03T03:41:11.669Z,0
2022-10-03T03:42:14.915Z,0
2022-10-03T03:43:18.412Z,0
2022-10-03T03:44:22.290Z,0
2022-10-03T03:45:25.458Z,0
2022-10-03T03:46:28.917Z,0
2022-10-03T03:47:32.058Z,0
2022-10-03T03:48:35.426Z,0
2022-10-03T03:49:38.322Z,0
2022-10-03T03:50:41.259Z,0
2022-10-03T03:51:44.657Z,0
2022-10-03T03:52:47.715Z,0
2022-10-03T03:53:50.756Z,0
2022-10-03T03:54:54.753Z,0
2022-10-03T03:55:57.823Z,0
2022-10-03T03:57:01.192Z,0
2022-10-03T03:58:04.566Z,0
2022-10-03T03:59:08.387Z,0
2022-10-03T04:00:11.496Z,0
2022-10-03T04:01:14.739Z,0
2022-10-03T04:02:18.523Z,0
2022-10-03T04:03:22.067Z,0
2022-10-03T04:04:25.127Z,0
2022-10-03T04:05:28.195Z,0
2022-10-03T04:06:30.971Z,0
2022-10-03T04:07:34.332Z,0
2022-10-03T04:08:37.006Z,0
2022-10-03T04:09:40.080Z,0
2022-10-03T04:10:43.192Z,0
2022-10-03T04:11:46.615Z,0
2022-10-03T04:12:49.804Z,0
2022-10-03T04:13:52.694Z,0
2022-10-03T04:14:56.495Z,0
2022-10-03T04:15:59.615Z,0
2022-10-03T04:17:02.350Z,0
2022-10-03T04:18:05.785Z,0
2022-10-03T04:19:08.529Z,0
2022-10-03T04:20:11.406Z,0
2022-10-03T04:21:18.877Z,0
2022-10-03T04:22:22.174Z,0
2022-10-03T04:23:25.695Z,0
2022-10-03T04:24:28.676Z,0
2022-10-03T04:25:32.109Z,0
2022-10-03T04:26:34.888Z,0
2022-10-03T04:27:37.326Z,0
2022-10-03T04:28:40.886Z,0
2022-10-03T04:29:44.262Z,0
2022-10-03T04:30:47.795Z,0
2022-10-03T04:31:50.555Z,0
2022-10-03T04:32:53.426Z,0
2022-10-03T04:33:56.313Z,0
2022-10-03T04:34:59.511Z,0
2022-10-03T04:36:02.579Z,0
2022-10-03T04:37:05.792Z,0
2022-10-03T04:38:09.145Z,0
2022-10-03T04:39:11.309Z,0
2022-10-03T04:40:14.401Z,0
2022-10-03T04:41:17.504Z,0
2022-10-03T04:42:20.287Z,0
2022-10-03T04:43:22.537Z,4
2022-10-03T04:44:25.341Z,4
2022-10-03T04:45:28.789Z,0
2022-10-03T04:46:32.858Z,4
2022-10-03T04:47:35.967Z,4
2022-10-03T04:48:39.155Z,4
2022-10-03T04:49:42.305Z,8
2022-10-03T04:50:45.427Z,8
2022-10-03T04:51:52.053Z,8
2022-10-03T04:52:58.758Z,12
2022-10-03T04:54:01.643Z,8
2022-10-03T04:55:04.539Z,16
2022-10-03T04:56:08.015Z,16
2022-10-03T04:57:10.795Z,20
2022-10-03T04:58:13.119Z,24
2022-10-03T04:59:15.828Z,28
2022-10-03T05:00:18.833Z,36
2022-10-03T05:01:21.458Z,44
2022-10-03T05:02:25.778Z,48
2022-10-03T05:03:29.663Z,60
2022-10-03T05:04:33.036Z,68
2022-10-03T05:05:36.119Z,80
2022-10-03T05:06:39.730Z,88
2022-10-03T05:07:43.189Z,104
2022-10-03T05:08:46.078Z,120
2022-10-03T05:09:49.489Z,136
2022-10-03T05:10:52.834Z,156
2022-10-03T05:11:55.001Z,176
2022-10-03T05:12:58.699Z,200
2022-10-03T05:14:01.305Z,224
2022-10-03T05:15:04.173Z,252
2022-10-03T05:16:07.627Z,280
2022-10-03T05:17:10.822Z,312
2022-10-03T05:18:13.226Z,344
2022-10-03T05:19:16.593Z,372
2022-10-03T05:20:19.308Z,408
2022-10-03T05:21:22.210Z,440
2022-10-03T05:22:25.895Z,480
2022-10-03T05:23:29.345Z,520
2022-10-03T05:24:32.517Z,564
2022-10-03T05:25:35.782Z,608
2022-10-03T05:26:44.848Z,656
2022-10-03T05:27:49.525Z,704
2022-10-03T05:28:52.342Z,752
2022-10-03T05:29:55.215Z,804
2022-10-03T05:30:58.575Z,848
2022-10-03T05:32:00.998Z,904
2022-10-03T05:33:08.444Z,956
2022-10-03T05:34:11.730Z,1016
2022-10-03T05:35:14.551Z,1072
2022-10-03T05:36:17.723Z,1124
2022-10-03T05:37:20.879Z,1200
2022-10-03T05:38:23.711Z,1256
2022-10-03T05:39:27.237Z,1384
2022-10-03T05:40:30.896Z,1584
2022-10-03T05:41:33.874Z,1660
2022-10-03T05:42:37.228Z,1764
2022-10-03T05:43:39.908Z,1740
2022-10-03T05:44:43.358Z,1828
2022-10-03T05:45:46.548Z,1964
2022-10-03T05:46:50.635Z,2340
2022-10-03T05:47:54.102Z,2336
2022-10-03T05:48:57.212Z,2364
2022-10-03T05:50:00.431Z,2208
2022-10-03T05:51:17.082Z,2288
2022-10-03T05:52:20.161Z,2344
2022-10-03T05:53:24.182Z,2424
2022-10-03T05:54:27.617Z,2584
2022-10-03T05:55:29.952Z,2764
2022-10-03T05:56:34.772Z,2736
2022-10-03T05:57:43.570Z,2840
2022-10-03T05:58:46.637Z,2824
2022-10-03T05:59:49.888Z,2804
2022-10-03T06:00:52.472Z,2816
2022-10-03T06:01:55.816Z,2852
2022-10-03T06:02:59.156Z,2884
2022-10-03T06:04:06.021Z,2928
2022-10-03T06:05:09.413Z,2996
2022-10-03T06:06:12.420Z,3064
2022-10-03T06:07:15.325Z,3132
2022-10-03T06:08:18.480Z,3196
2022-10-03T06:09:21.974Z,3232
2022-10-03T06:10:25.156Z,3244
2022-10-03T06:11:28.229Z,3368
2022-10-03T06:12:31.297Z,3520
2022-10-03T06:13:34.446Z,3696
2022-10-03T06:14:37.718Z,3760
2022-10-03T06:15:41.282Z,3632
2022-10-03T06:16:44.992Z,3840
2022-10-03T06:17:47.226Z,4168
2022-10-03T06:18:50.863Z,4328
2022-10-03T06:19:54.057Z,4348
2022-10-03T06:20:57.549Z,4300
2022-10-03T06:22:01.281Z,4476
2022-10-03T06:23:06.044Z,4356
2022-10-03T06:24:08.459Z,4604
2022-10-03T06:25:11.913Z,4540
2022-10-03T06:26:15.409Z,4720
2022-10-03T06:27:17.845Z,4720
2022-10-03T06:28:20.913Z,4636
2022-10-03T06:29:23.260Z,4476
2022-10-03T06:30:25.489Z,4504
2022-10-03T06:31:31.792Z,4736
2022-10-03T06:32:35.083Z,5084
2022-10-03T06:33:38.810Z,5060
2022-10-03T06:34:42.177Z,5160
2022-10-03T06:35:44.979Z,5292
2022-10-03T06:36:48.766Z,5468
2022-10-03T06:37:51.852Z,5512
2022-10-03T06:38:54.988Z,5612
2022-10-03T06:39:58.063Z,5516
2022-10-03T06:41:01.211Z,5884
2022-10-03T06:42:04.140Z,6996
2022-10-03T06:43:07.405Z,8536
2022-10-03T06:44:09.661Z,9888
2022-10-03T06:45:12.259Z,10476
2022-10-03T06:46:15.424Z,10324
2022-10-03T06:47:18.635Z,9632
2022-10-03T06:48:22.301Z,9172
2022-10-03T06:49:25.632Z,9408
2022-10-03T06:50:29.203Z,9792
2022-10-03T06:51:32.014Z,10272
2022-10-03T06:52:35.141Z,10400
2022-10-03T06:53:38.033Z,10704
2022-10-03T06:54:41.711Z,11176
2022-10-03T06:55:45.230Z,12216
2022-10-03T06:56:50.032Z,12700
2022-10-03T06:57:53.684Z,12024
2022-10-03T06:58:56.823Z,10864
2022-10-03T06:59:59.900Z,9948
2022-10-03T07:01:02.769Z,9384
2022-10-03T07:02:05.864Z,9620
2022-10-03T07:03:09.068Z,10184
2022-10-03T07:04:12.419Z,10876
2022-10-03T07:05:15.581Z,11344
2022-10-03T07:06:18.107Z,11208
2022-10-03T07:07:21.112Z,10904
2022-10-03T07:08:23.840Z,10700
2022-10-03T07:09:27.266Z,10056
2022-10-03T07:10:30.983Z,9888
2022-10-03T07:11:34.046Z,10748
2022-10-03T07:12:37.434Z,11120
2022-10-03T07:13:40.535Z,10872
2022-10-03T07:14:43.696Z,10864
2022-10-03T07:17:36.432Z,10256
2022-10-03T07:18:39.290Z,10420
2022-10-03T07:19:42.669Z,10556
2022-10-03T07:20:45.290Z,10564
2022-10-03T07:21:48.621Z,9564
2022-10-03T07:22:51.786Z,11212
2022-10-03T07:23:54.743Z,11772
2022-10-03T07:24:57.836Z,10444
2022-10-03T07:26:00.719Z,10012
2022-10-03T07:27:04.166Z,10860
2022-10-03T07:28:07.443Z,10932
2022-10-03T07:29:10.402Z,10840
2022-10-03T07:30:13.548Z,11176
2022-10-03T07:31:16.956Z,10904
2022-10-03T07:32:20.594Z,10136
2022-10-03T07:33:23.866Z,9924
2022-10-03T07:34:27.592Z,9584
2022-10-03T07:35:30.657Z,8800
2022-10-03T07:36:33.737Z,9780
2022-10-03T07:37:37.175Z,10576
2022-10-03T07:38:40.448Z,9892
2022-10-03T07:39:43.850Z,9048
2022-10-03T07:40:46.710Z,10208
2022-10-03T07:41:50.436Z,11108
2022-10-03T07:42:53.553Z,10540
2022-10-03T07:43:56.321Z,10036
2022-10-03T07:45:00.065Z,9760
2022-10-03T07:46:03.119Z,9056
2022-10-03T07:47:07.072Z,9036
2022-10-03T07:48:10.483Z,8712
2022-10-03T07:49:17.719Z,7824
2022-10-03T07:50:21.499Z,7336
2022-10-03T07:51:23.950Z,8112
2022-10-03T07:52:27.042Z,8624
2022-10-03T07:53:30.227Z,10060
2022-10-03T07:54:33.632Z,10476
2022-10-03T07:55:37.384Z,8740
2022-10-03T07:56:40.457Z,8648
2022-10-03T07:57:43.979Z,9316
2022-10-03T07:58:46.706Z,9380
2022-10-03T07:59:49.042Z,11100
2022-10-03T08:00:52.149Z,10952
2022-10-03T08:01:55.883Z,12816
2022-10-03T08:02:59.745Z,12792
2022-10-03T08:04:03.097Z,10896
2022-10-03T08:05:06.366Z,9596
2022-10-03T08:06:09.502Z,8508
2022-10-03T08:07:12.303Z,8756
2022-10-03T08:08:15.749Z,7732
2022-10-03T08:09:19.051Z,7924
2022-10-03T08:10:21.813Z,9564
2022-10-03T08:11:25.362Z,8252
2022-10-03T08:12:28.173Z,7620
2022-10-03T08:13:31.244Z,9000
2022-10-03T08:14:34.698Z,8860
2022-10-03T08:15:38.210Z,9580
2022-10-03T08:16:41.986Z,8984
2022-10-03T08:17:45.425Z,8896
2022-10-03T08:18:48.856Z,9904
2022-10-03T08:19:51.104Z,10476
2022-10-03T08:20:53.545Z,12868
2022-10-03T08:21:56.615Z,11908
2022-10-03T08:22:59.692Z,8904
2022-10-03T08:24:02.709Z,7944
2022-10-03T08:25:05.901Z,9652
2022-10-03T08:26:09.774Z,15832
2022-10-03T08:27:13.156Z,18288
2022-10-03T08:28:16.317Z,13472
2022-10-03T08:29:19.468Z,9592
2022-10-03T08:30:22.607Z,10296
2022-10-03T08:31:25.870Z,12152
2022-10-03T08:32:29.883Z,15568
2022-10-03T08:33:33.079Z,13236
2022-10-03T08:34:35.881Z,10956
2022-10-03T08:35:38.979Z,11244
2022-10-03T08:36:42.327Z,11784
2022-10-03T08:37:46.455Z,14280
2022-10-03T08:38:49.174Z,21824
2022-10-03T08:39:51.692Z,30560
2022-10-03T08:40:54.876Z,31232
2022-10-03T08:41:58.324Z,19392
2022-10-03T08:43:01.829Z,24192
2022-10-03T08:44:05.081Z,24864
2022-10-03T08:45:07.654Z,17756
2022-10-03T08:46:11.039Z,25024
2022-10-03T08:47:14.525Z,28096
2022-10-03T08:48:17.898Z,36928
2022-10-03T08:49:21.053Z,79456
2022-10-03T08:50:24.148Z,47488
2022-10-03T08:51:27.593Z,44672
2022-10-03T08:52:30.846Z,23008
2022-10-03T08:53:33.918Z,78944
2022-10-03T08:54:36.685Z,70080
2022-10-03T08:55:39.178Z,30944
2022-10-03T08:56:42.564Z,21632
2022-10-03T08:57:45.698Z,19584
2022-10-03T08:58:48.822Z,86016
2022-10-03T08:59:52.106Z,99648
2022-10-03T09:00:55.483Z,43328
2022-10-03T09:01:58.156Z,19488
2022-10-03T09:03:31.772Z,34176
2022-10-03T09:04:46.420Z,83968
2022-10-03T09:05:49.681Z,29312
2022-10-03T09:07:15.764Z,86880
2022-10-03T09:08:25.082Z,24160
2022-10-03T09:09:27.602Z,21024
2022-10-03T09:10:38.060Z,19840
2022-10-03T09:11:41.225Z,17088
2022-10-03T09:12:44.184Z,20256
2022-10-03T09:13:47.738Z,15316
2022-10-03T09:14:51.533Z,15512
2022-10-03T09:15:54.768Z,15496
2022-10-03T09:16:57.110Z,9556
2022-10-03T09:18:00.256Z,8024
2022-10-03T09:19:03.051Z,6568
2022-10-03T09:20:06.574Z,8544
2022-10-03T09:21:09.645Z,9892
2022-10-03T09:22:13.114Z,9076
2022-10-03T09:23:16.180Z,8608
2022-10-03T09:24:18.980Z,9944
2022-10-03T09:25:22.042Z,14648
2022-10-03T09:26:25.033Z,30944
2022-10-03T09:27:27.663Z,23520
2022-10-03T09:28:30.799Z,14116
2022-10-03T09:29:34.541Z,13304
2022-10-03T09:30:38.299Z,14780
2022-10-03T09:31:41.784Z,12268
2022-10-03T09:32:46.448Z,9364
2022-10-03T09:33:49.839Z,11020
2022-10-03T09:34:53.652Z,10812
2022-10-03T09:35:57.341Z,9052
2022-10-03T09:37:00.449Z,8092
2022-10-03T09:38:03.324Z,8468
2022-10-03T09:39:06.675Z,8540
2022-10-03T09:40:09.355Z,7912
2022-10-03T09:41:11.866Z,10172
2022-10-03T09:42:15.517Z,13348
2022-10-03T09:43:17.753Z,15780
2022-10-03T09:44:20.547Z,17160
2022-10-03T09:45:24.280Z,17336
2022-10-03T09:46:28.070Z,17188
2022-10-03T09:47:32.221Z,18948
2022-10-03T09:48:36.031Z,110336
2022-10-03T09:49:38.746Z,119104
2022-10-03T09:50:41.900Z,101824
2022-10-03T09:51:44.746Z,117920
2022-10-03T09:52:47.812Z,123840
2022-10-03T09:53:50.592Z,120064
2022-10-03T09:54:53.873Z,19904
2022-10-03T09:55:56.661Z,75584
2022-10-03T09:56:59.707Z,91360
2022-10-03T09:58:03.440Z,30592
2022-10-03T09:59:06.854Z,25152
2022-10-03T10:00:10.029Z,18720
2022-10-03T10:01:13.124Z,21056
2022-10-03T10:02:16.697Z,25344
2022-10-03T10:03:19.791Z,46144
2022-10-03T10:04:37.767Z,128928
2022-10-03T10:05:59.376Z,15344
2022-10-03T10:07:01.959Z,10740
2022-10-03T10:08:05.145Z,10072
2022-10-03T10:09:07.967Z,10012
2022-10-03T10:10:11.201Z,12100
2022-10-03T10:11:13.801Z,15348
2022-10-03T10:12:16.912Z,22624
2022-10-03T10:13:20.027Z,117504
2022-10-03T10:14:22.913Z,19296
2022-10-03T10:15:26.337Z,14252
2022-10-03T10:16:29.174Z,13388
2022-10-03T10:17:33.148Z,16912
2022-10-03T10:18:36.233Z,24032
2022-10-03T10:19:39.941Z,41120
2022-10-03T10:20:42.453Z,123424
2022-10-03T10:21:45.344Z,88864
2022-10-03T10:22:48.673Z,13988
2022-10-03T10:23:51.748Z,13308
2022-10-03T10:24:54.477Z,9028
2022-10-03T10:25:57.191Z,8168
2022-10-03T10:27:00.090Z,10296
2022-10-03T10:28:02.840Z,12564
2022-10-03T10:29:05.949Z,104608
2022-10-03T10:30:08.748Z,127616
2022-10-03T10:31:12.048Z,127648
2022-10-03T10:32:20.576Z,126432
2022-10-03T10:33:24.977Z,124064
2022-10-03T10:34:28.159Z,123744
2022-10-03T10:35:30.762Z,124096
2022-10-03T10:36:34.032Z,128096
2022-10-03T10:37:37.188Z,129856
2022-10-03T10:38:48.834Z,138464
2022-10-03T10:39:51.724Z,139968
2022-10-03T10:40:54.543Z,140448
2022-10-03T10:42:01.318Z,142144
2022-10-03T10:43:03.761Z,146592
2022-10-03T10:44:06.923Z,100608
2022-10-03T10:45:10.103Z,143904
2022-10-03T10:46:12.931Z,17612
2022-10-03T10:47:16.099Z,132704
2022-10-03T10:48:19.553Z,132512
2022-10-03T10:49:23.234Z,136000
2022-10-03T10:50:25.973Z,137248
2022-10-03T10:51:29.430Z,16592
2022-10-03T10:52:32.842Z,41632
2022-10-03T10:53:36.255Z,145120
2022-10-03T10:54:39.455Z,149664
2022-10-03T10:55:46.016Z,63488
2022-10-03T10:56:49.889Z,16380
2022-10-03T10:57:53.242Z,135104
2022-10-03T10:58:56.423Z,139488
2022-10-03T10:59:59.225Z,13940
2022-10-03T11:01:01.865Z,129600
2022-10-03T11:02:05.769Z,130944
2022-10-03T11:03:09.054Z,131936
2022-10-03T11:04:11.954Z,134016
2022-10-03T11:05:15.694Z,130656
2022-10-03T11:06:19.067Z,130560
2022-10-03T11:07:22.140Z,132576
2022-10-03T11:08:25.877Z,38528
2022-10-03T11:09:28.683Z,126016
2022-10-03T11:10:31.238Z,127328
2022-10-03T11:11:34.590Z,130752
2022-10-03T11:12:37.300Z,24576
2022-10-03T11:13:40.030Z,109824
2022-10-03T11:14:43.023Z,25632
2022-10-03T11:15:46.024Z,44992
2022-10-03T11:16:48.663Z,23200
2022-10-03T11:17:51.955Z,39776
2022-10-03T11:18:55.131Z,98272
2022-10-03T11:19:58.506Z,31424
2022-10-03T11:21:01.357Z,51968
2022-10-03T11:22:04.250Z,40224
2022-10-03T11:23:07.948Z,18132
2022-10-03T11:24:10.738Z,20640
2022-10-03T11:25:13.912Z,11556
2022-10-03T11:26:17.098Z,11748
2022-10-03T11:27:20.805Z,13864
2022-10-03T11:28:26.982Z,119808
2022-10-03T11:29:30.579Z,121120
2022-10-03T11:30:33.423Z,118496
2022-10-03T11:31:36.474Z,115072
2022-10-03T11:32:40.145Z,119392
2022-10-03T11:33:42.948Z,57472
2022-10-03T11:34:46.213Z,33280
2022-10-03T11:35:49.675Z,125504
2022-10-03T11:36:52.997Z,123520
2022-10-03T11:37:56.139Z,57248
2022-10-03T11:38:59.882Z,114464
2022-10-03T11:40:02.677Z,115584
2022-10-03T11:41:05.490Z,118432
2022-10-03T11:42:08.804Z,121440
2022-10-03T11:43:12.030Z,129312
2022-10-03T11:44:15.155Z,127040
2022-10-03T11:45:18.890Z,110752
2022-10-03T11:46:21.889Z,32544
2022-10-03T11:47:24.774Z,39872
2022-10-03T11:48:27.936Z,70240
2022-10-03T11:49:31.161Z,27264
2022-10-03T11:50:34.448Z,37376
2022-10-03T11:51:37.578Z,28128
2022-10-03T11:52:40.983Z,30496
2022-10-03T11:53:44.162Z,43712
2022-10-03T11:54:47.049Z,28224
2022-10-03T11:55:50.499Z,26560
2022-10-03T11:56:54.197Z,27904
2022-10-03T11:57:57.297Z,28384
2022-10-03T11:58:59.737Z,29728
2022-10-03T12:00:02.815Z,27488
2022-10-03T12:01:06.255Z,26208
2022-10-03T12:02:09.750Z,25024
2022-10-03T12:03:12.952Z,22912
2022-10-03T12:04:16.799Z,23616
2022-10-03T12:05:19.686Z,23552
2022-10-03T12:06:22.781Z,21888
2022-10-03T12:07:26.617Z,20768
2022-10-03T12:08:29.826Z,20544
2022-10-03T12:09:33.104Z,21504
2022-10-03T12:10:35.826Z,22624
2022-10-03T12:11:39.295Z,20736
2022-10-03T12:12:44.739Z,20064
2022-10-03T12:13:47.910Z,17892
2022-10-03T12:14:51.260Z,17136
2022-10-03T12:15:54.840Z,17924
2022-10-03T12:16:57.920Z,18016
2022-10-03T12:18:01.902Z,20160
2022-10-03T12:19:05.637Z,21824
2022-10-03T12:20:08.367Z,22208
2022-10-03T12:21:11.917Z,19136
2022-10-03T12:22:23.032Z,21504
2022-10-03T12:23:26.182Z,20736
2022-10-03T12:24:29.875Z,19808
2022-10-03T12:25:33.053Z,20032
2022-10-03T12:26:36.135Z,23072
2022-10-03T12:27:39.259Z,24064
2022-10-03T12:28:42.523Z,23904
2022-10-03T12:29:45.923Z,22432
2022-10-03T12:30:48.725Z,21856
2022-10-03T12:31:51.292Z,22368
2022-10-03T12:32:54.433Z,25760
2022-10-03T12:33:57.823Z,22816
2022-10-03T12:35:00.898Z,20160
2022-10-03T12:36:04.005Z,19680
2022-10-03T12:37:07.804Z,19904
2022-10-03T12:38:10.618Z,31968
2022-10-03T12:39:13.440Z,19968
2022-10-03T12:40:16.928Z,19712
2022-10-03T12:41:20.403Z,23936
2022-10-03T12:42:23.462Z,28096
2022-10-03T12:43:26.193Z,30336
2022-10-03T12:44:29.539Z,33216
2022-10-03T12:45:32.420Z,32224
2022-10-03T12:46:35.935Z,34848
2022-10-03T12:47:54.680Z,33792
2022-10-03T12:48:59.927Z,32448
2022-10-03T12:50:02.917Z,31776
2022-10-03T12:51:05.850Z,29888
2022-10-03T12:52:08.574Z,29504
2022-10-03T12:53:11.939Z,27712
2022-10-03T12:54:14.759Z,24928
2022-10-03T12:55:18.769Z,24032
2022-10-03T12:56:22.348Z,25920
2022-10-03T12:57:25.449Z,26464
2022-10-03T12:58:27.892Z,27904
2022-10-03T12:59:30.150Z,27424
2022-10-03T13:00:32.941Z,23680
2022-10-03T13:01:37.157Z,20256
2022-10-03T13:02:42.509Z,21408
2022-10-03T13:03:46.614Z,16796
2022-10-03T13:04:50.346Z,13428
2022-10-03T13:05:53.761Z,16900
2022-10-03T13:07:04.865Z,15264
2022-10-03T13:08:07.526Z,17144
2022-10-03T13:09:10.671Z,15456
2022-10-03T13:10:14.413Z,15168
2022-10-03T13:11:17.935Z,15960
2022-10-03T13:12:25.505Z,23200
2022-10-03T13:13:31.437Z,14136
2022-10-03T13:14:35.169Z,10444
2022-10-03T13:15:38.357Z,10424
2022-10-03T13:16:41.454Z,32736
2022-10-03T13:17:44.258Z,48320
2022-10-03T13:18:47.634Z,11428
2022-10-03T13:19:50.627Z,50912
2022-10-03T13:20:53.426Z,12884
2022-10-03T13:21:57.147Z,33248
2022-10-03T13:23:01.991Z,50912
2022-10-03T13:24:04.982Z,30464
2022-10-03T13:25:08.419Z,18848
2022-10-03T13:26:16.000Z,19008
2022-10-03T13:27:21.945Z,24928
2022-10-03T13:28:25.197Z,12052
2022-10-03T13:29:28.174Z,10832
2022-10-03T13:30:31.326Z,9564
2022-10-03T13:31:35.062Z,9328
2022-10-03T13:32:38.973Z,11844
2022-10-03T13:33:42.431Z,10420
2022-10-03T13:34:45.143Z,9668
2022-10-03T13:35:48.426Z,9484
2022-10-03T13:36:51.856Z,11196
2022-10-03T13:37:55.556Z,12816
2022-10-03T13:38:58.793Z,15396
2022-10-03T13:40:01.967Z,11352
2022-10-03T13:41:05.220Z,8456
2022-10-03T13:42:08.119Z,8936
2022-10-03T13:43:10.995Z,13332
2022-10-03T13:44:14.532Z,13396
2022-10-03T13:45:17.335Z,11660
2022-10-03T13:46:20.819Z,9724
2022-10-03T13:47:24.344Z,8448
2022-10-03T13:48:27.475Z,7208
2022-10-03T13:49:30.610Z,6152
2022-10-03T13:50:33.634Z,5472
2022-10-03T13:51:36.551Z,4636
2022-10-03T13:52:40.965Z,3908
2022-10-03T13:53:44.122Z,3180
2022-10-03T13:54:47.623Z,2892
2022-10-03T13:55:54.011Z,2424
2022-10-03T13:57:01.493Z,1796
2022-10-03T13:58:04.735Z,1616
2022-10-03T13:59:08.403Z,1612
2022-10-03T14:00:11.327Z,2116
2022-10-03T14:01:14.797Z,2584
2022-10-03T14:02:17.484Z,3272
2022-10-03T14:03:21.188Z,4072
2022-10-03T14:04:24.377Z,5680
2022-10-03T14:05:27.727Z,7940
2022-10-03T14:06:35.310Z,9780
2022-10-03T14:07:40.900Z,12452
2022-10-03T14:08:44.085Z,10832
2022-10-03T14:09:47.423Z,9184
2022-10-03T14:10:50.248Z,8292
2022-10-03T14:11:53.338Z,7968
2022-10-03T14:12:57.000Z,8364
2022-10-03T14:14:00.485Z,9772
2022-10-03T14:15:03.839Z,10384
2022-10-03T14:16:07.502Z,9536
2022-10-03T14:17:11.407Z,8524
2022-10-03T14:18:13.658Z,8052
2022-10-03T14:19:17.302Z,7488
2022-10-03T14:20:20.510Z,6600
2022-10-03T14:21:23.238Z,5416
2022-10-03T14:22:26.025Z,4256
2022-10-03T14:23:28.977Z,3604
2022-10-03T14:24:36.111Z,3424
2022-10-03T14:25:40.465Z,3264